Weather reports worldwide

Advertisment
Somosierra, Spain (8145): temperature & dewpoint: 14.10.2019 23:00:00 - 20.10.2019 23:00:00 (CEST)Somosierra, Spain (8145): wind speed & gusts: 14.10.2019 23:00:00 - 20.10.2019 23:00:00 (CEST)Somosierra, Spain (8145): wind direction: 14.10.2019 23:00:00 - 20.10.2019 23:00:00 (CEST)Somosierra, Spain (8145): precipitation: 14.10.2019 23:00:00 - 20.10.2019 23:00:00 (CEST)
Date & Time tt [°C] td [°C] ff [km/h] ff [kn] fx [km/h] fx [kn] dd rr [mm]
20.10.2019 23:00:00 - - - - - - - -
20.10.2019 22:00:00 - - - - - - - -
20.10.2019 21:00:00 - - - - - - - -
20.10.2019 20:00:00 - - - - - - - -
20.10.2019 19:00:00 - - - - - - - -
20.10.2019 18:00:00 2,8 2,7 9 5 29 16 N 3,4
20.10.2019 17:00:00 3,3 3,0 6 4 31 17 NNW 1,0
20.10.2019 16:00:00 4,4 3,9 2 1 23 13 W 0,2
20.10.2019 15:00:00 4,3 3,2 5 3 20 11 WSW 0,0
20.10.2019 14:00:00 4,9 4,1 5 3 21 12 W -
20.10.2019 13:00:00 5,2 3,8 6 3 19 10 WSW 0,0
20.10.2019 12:00:00 4,7 3,6 3 2 21 11 W 0,2
20.10.2019 11:00:00 4,4 3,4 0 0 8 4 SSE 0,0
20.10.2019 10:00:00 4,1 3,0 0 0 10 5 WSW 0,0
20.10.2019 09:00:00 3,3 2,3 2 1 9 5 E 0,0
20.10.2019 08:00:00 3,6 2,5 2 1 11 6 SSE -
20.10.2019 07:00:00 3,6 2,9 1 1 21 12 SE 0,0
20.10.2019 06:00:00 4,0 3,2 1 1 14 7 NW 0,0
20.10.2019 05:00:00 4,3 3,8 3 2 25 14 S 0,0
20.10.2019 04:00:00 4,7 4,6 6 3 31 17 SW 0,0
20.10.2019 03:00:00 5,8 5,5 8 4 29 16 WSW 18,4
20.10.2019 02:00:00 8,0 7,8 9 5 33 18 SSW -
20.10.2019 01:00:00 8,3 8,0 16 9 36 20 S 0,4
20.10.2019 00:00:00 8,4 7,8 9 5 32 17 SSE 2,2
19.10.2019 23:00:00 8,2 8,1 9 5 21 12 SSE 11,0
19.10.2019 22:00:00 8,2 7,8 7 4 24 13 S 8,2
19.10.2019 21:00:00 8,2 7,4 15 8 38 21 SSE 0,8
19.10.2019 20:00:00 8,2 7,8 19 10 42 23 SSE -
19.10.2019 19:00:00 7,6 7,4 22 12 47 26 S 0,2
19.10.2019 18:00:00 7,6 7,1 25 13 46 25 S 0,4
19.10.2019 17:00:00 8,4 6,5 22 12 45 24 S 0,0
19.10.2019 16:00:00 8,0 5,8 16 8 35 19 S 0,0
19.10.2019 15:00:00 7,9 5,3 22 12 35 19 S 0,0
19.10.2019 14:00:00 6,4 5,1 19 10 36 20 S -
19.10.2019 13:00:00 6,2 5,5 21 12 36 19 S 0,4
19.10.2019 12:00:00 6,1 5,0 21 12 36 19 S 0,0
19.10.2019 11:00:00 6,4 5,6 17 9 34 18 S 0,0
19.10.2019 10:00:00 5,7 5,6 13 7 23 12 S 0,0
19.10.2019 09:00:00 5,7 5,5 11 6 19 10 S 0,0
19.10.2019 08:00:00 5,9 4,8 1 1 9 5 S -
19.10.2019 07:00:00 6,3 4,8 2 1 19 11 SE 0,0
19.10.2019 06:00:00 6,3 5,3 2 1 26 14 WNW 0,0
19.10.2019 05:00:00 7,1 6,5 0 0 10 6 WNW 0,0
19.10.2019 04:00:00 7,1 6,4 6 3 16 9 SSW 0,0
19.10.2019 03:00:00 7,9 7,4 3 2 11 6 S 0,0
19.10.2019 02:00:00 8,5 8,3 4 2 21 11 S -
19.10.2019 01:00:00 8,7 8,4 8 4 18 10 S 0,0
19.10.2019 00:00:00 8,6 8,3 6 4 16 9 S 0,0
18.10.2019 23:00:00 8,5 7,7 3 2 8 5 S 0,0
18.10.2019 22:00:00 9,2 8,1 2 1 16 9 SSW 0,0
18.10.2019 21:00:00 10,3 8,9 5 3 22 12 SSE 0,0
18.10.2019 20:00:00 10,9 9,8 13 7 29 16 S -
18.10.2019 19:00:00 11,7 10,4 16 9 31 17 SSE 0,0
18.10.2019 18:00:00 12,4 10,6 16 8 27 15 S 0,0
18.10.2019 17:00:00 13,4 10,9 12 7 23 12 S 0,0
18.10.2019 16:00:00 14,0 11,0 4 2 14 8 S 0,0
18.10.2019 15:00:00 14,2 10,0 5 3 22 12 SSW 0,0
18.10.2019 14:00:00 13,5 10,5 11 6 21 12 S -
18.10.2019 13:00:00 11,5 10,0 5 3 16 9 S 0,0
18.10.2019 12:00:00 10,4 9,3 3 2 22 12 SSE 0,0
18.10.2019 11:00:00 10,4 10,3 7 4 23 12 WSW 0,6
18.10.2019 10:00:00 10,2 10,0 3 2 16 9 W 3,8
18.10.2019 09:00:00 9,9 9,8 0 0 12 6 ESE 5,2
18.10.2019 08:00:00 9,8 9,7 7 4 16 9 S -
18.10.2019 07:00:00 9,7 9,6 8 4 21 11 S 5,4
18.10.2019 06:00:00 9,6 9,4 8 4 16 8 S 1,6
18.10.2019 05:00:00 9,4 9,3 5 3 16 9 SSE 0,4
18.10.2019 04:00:00 9,2 9,0 7 4 16 8 SSW 1,0
18.10.2019 03:00:00 9,2 9,0 7 4 14 8 SSE 0,0
18.10.2019 02:00:00 9,2 9,0 6 4 18 10 S -
18.10.2019 01:00:00 9,2 9,0 9 5 20 11 S 2,2
18.10.2019 00:00:00 9,1 8,9 12 7 21 12 S 0,6
17.10.2019 23:00:00 8,8 8,7 8 5 19 11 S 2,4
17.10.2019 22:00:00 8,9 8,8 5 3 13 7 S 0,2
17.10.2019 21:00:00 8,8 8,7 6 3 15 8 S 0,0
17.10.2019 20:00:00 8,7 8,5 8 5 19 10 S -
17.10.2019 19:00:00 8,9 8,8 8 4 18 10 S 0,0
17.10.2019 18:00:00 9,7 9,3 9 5 19 11 S 0,0
17.10.2019 17:00:00 10,2 9,9 5 3 20 11 S 0,0
17.10.2019 16:00:00 10,3 10,0 8 4 16 9 S 0,0
17.10.2019 15:00:00 10,3 10,0 1 1 10 5 SSE 1,6
17.10.2019 14:00:00 10,1 9,9 3 2 13 7 SSE -
17.10.2019 13:00:00 7,6 7,4 5 3 15 8 S 0,4
17.10.2019 12:00:00 10,1 9,9 6 4 24 13 SW 0,8
17.10.2019 11:00:00 9,7 9,6 4 2 18 10 SW 1,6
17.10.2019 10:00:00 5,8 5,6 5 3 17 9 S 1,6
17.10.2019 09:00:00 5,4 5,3 4 2 14 7 SSE 4,0
17.10.2019 08:00:00 5,5 4,8 5 3 11 6 S -
17.10.2019 07:00:00 6,2 4,5 5 3 11 6 S 0,0
17.10.2019 06:00:00 6,1 3,4 3 2 11 6 SSW 0,0
17.10.2019 05:00:00 5,6 2,9 6 3 14 7 S 0,0
17.10.2019 04:00:00 5,9 3,2 11 6 15 8 S 0,0
17.10.2019 03:00:00 6,3 3,2 8 5 15 8 S 0,0
17.10.2019 02:00:00 5,5 3,2 10 5 16 8 S -
17.10.2019 01:00:00 5,5 3,4 6 4 14 8 S 0,0
17.10.2019 00:00:00 5,4 3,2 6 3 10 6 S 0,0
16.10.2019 23:00:00 5,5 3,2 7 4 11 6 S 0,0
16.10.2019 22:00:00 6,6 3,4 6 3 13 7 S 0,0
16.10.2019 21:00:00 7,5 3,6 7 4 17 9 S 0,0
16.10.2019 20:00:00 8,4 3,6 8 4 19 10 S -
16.10.2019 19:00:00 10,2 4,3 7 4 19 11 S 0,0
16.10.2019 18:00:00 12,0 3,9 10 5 22 12 S 0,0
16.10.2019 17:00:00 12,9 4,3 12 6 23 13 S 0,0
16.10.2019 16:00:00 12,5 3,9 8 4 16 9 S 0,0
16.10.2019 15:00:00 11,8 4,8 8 4 22 12 S 0,0
16.10.2019 14:00:00 10,2 4,3 12 6 22 12 S -
16.10.2019 13:00:00 9,8 4,1 11 6 21 12 SSW 0,0
16.10.2019 12:00:00 9,9 3,8 2 1 18 10 SSW 0,0
16.10.2019 11:00:00 7,0 3,9 6 3 18 10 NW 0,0
16.10.2019 10:00:00 6,3 4,8 3 2 19 10 NNW 0,0
16.10.2019 09:00:00 3,4 2,7 3 1 10 5 N 0,0
16.10.2019 08:00:00 3,9 2,9 1 1 19 10 N -
16.10.2019 07:00:00 3,3 1,9 2 1 9 5 NNE 0,0
16.10.2019 06:00:00 3,7 1,5 2 1 10 5 N 0,0
16.10.2019 05:00:00 3,5 0,6 1 0 9 5 E 0,0
16.10.2019 04:00:00 3,4 0,4 0 0 4 2 NNE 0,0
16.10.2019 03:00:00 4,4 0,6 2 1 10 5 SSE 0,0
16.10.2019 02:00:00 5,6 1,3 3 2 7 4 SE -
16.10.2019 01:00:00 5,3 1,5 1 0 8 4 SSW 0,0
16.10.2019 00:00:00 5,7 1,1 5 3 15 8 SE 0,0
15.10.2019 23:00:00 5,4 1,5 0 0 11 6 NNW 0,0
15.10.2019 22:00:00 4,8 0,9 4 2 8 4 E 0,0
15.10.2019 21:00:00 5,4 1,1 1 0 9 5 ESE 0,0
15.10.2019 20:00:00 5,3 0,6 5 3 19 10 NW -
15.10.2019 19:00:00 6,8 1,1 3 2 19 10 NNW 0,0
15.10.2019 18:00:00 8,9 2,1 9 5 22 12 WNW 0,0
15.10.2019 17:00:00 9,8 2,7 9 5 26 14 W 0,0
15.10.2019 16:00:00 9,2 3,0 10 5 22 12 W 0,0
15.10.2019 15:00:00 7,8 3,4 6 3 16 9 W 0,0
15.10.2019 14:00:00 6,8 2,7 4 2 22 12 NW -
15.10.2019 13:00:00 5,6 3,2 2 1 22 12 N 0,0
15.10.2019 12:00:00 4,5 3,2 3 2 19 10 NW 0,0
15.10.2019 11:00:00 3,0 2,9 2 1 22 12 NNW 0,0
15.10.2019 10:00:00 2,4 2,3 8 5 28 15 NW 0,0
15.10.2019 09:00:00 2,1 1,9 4 2 29 16 WNW 0,0
15.10.2019 08:00:00 2,0 1,9 5 3 27 15 NW -
15.10.2019 07:00:00 1,8 1,7 6 3 27 15 NW 0,0
15.10.2019 06:00:00 1,8 1,7 5 3 28 15 WNW 0,0
15.10.2019 05:00:00 2,0 1,9 9 5 35 19 NW 0,0
15.10.2019 04:00:00 2,2 2,1 11 6 36 20 WNW 0,0
15.10.2019 03:00:00 2,3 2,1 8 4 40 21 WNW 0,0
15.10.2019 02:00:00 2,5 2,3 10 6 37 20 W -
15.10.2019 01:00:00 2,6 2,5 9 5 33 18 W 0,2
15.10.2019 00:00:00 2,6 2,5 7 4 34 18 W 0,0
14.10.2019 23:00:00 3,3 3,2 7 4 36 20 WNW 0,8

tt = temperature
td = dewpoint
ff = wind speed
fx = gusts
dd = wind direction
rr = precipitation

Next stations